Time;durP1;ratioP1;P1;durP2;ratioP2;P2;SDS_P1;SDS_P2;PMS_P1;PMS_P2;Temp;Humidity;BMP_temperature;BMP_pressure;BME280_temperature;BME280_humidity;BME280_pressure;Samples;Min_cycle;Max_cycle;Signal;HPM_P1;HPM_P2
2023/07/25 15:36:25;;;;;;;39.53;23.13;;;19.30;84.50;;;;;;5123706;27;20460;-75
2023/07/25 15:38:50;;;;;;;20.38;8.07;;;19.20;90.40;;;;;;5121743;27;20048;-75
2023/07/25 15:41:19;;;;;;;44.65;20.42;;;19.30;89.60;;;;;;5125809;28;20593;-75
2023/07/25 15:43:44;;;;;;;28.58;13.77;;;19.40;91.20;;;;;;5123941;28;20078;-75
2023/07/25 15:46:10;;;;;;;27.92;11.43;;;19.40;91.10;;;;;;5123696;28;20046;-74
2023/07/25 15:48:36;;;;;;;13.60;5.70;;;19.50;91.00;;;;;;5118300;28;20050;-74
2023/07/25 15:51:02;;;;;;;23.33;10.50;;;19.60;90.20;;;;;;5119069;28;20071;-74
2023/07/25 15:53:28;;;;;;;6.57;2.75;;;19.60;90.60;;;;;;5110511;28;20058;-74
2023/07/25 15:55:53;;;;;;;14.35;5.55;;;19.60;89.10;;;;;;5122642;28;20110;-74
2023/07/25 15:58:19;;;;;;;8.00;2.47;;;19.60;89.00;;;;;;5123224;28;20075;-74
2023/07/25 16:00:45;;;;;;;23.73;8.70;;;19.70;88.40;;;;;;5115791;28;20568;-74
2023/07/25 16:03:10;;;;;;;18.48;7.88;;;19.70;90.30;;;;;;5127064;27;20077;-74
2023/07/25 16:05:36;;;;;;;11.25;3.85;;;19.70;91.00;;;;;;5128372;28;20099;-74
2023/07/25 16:08:02;;;;;;;6.80;2.50;;;19.80;90.00;;;;;;5120357;27;20062;-75
2023/07/25 16:10:28;;;;;;;15.73;6.40;;;19.80;88.70;;;;;;5109123;28;20447;-74
2023/07/25 16:12:53;;;;;;;10.48;3.80;;;19.80;90.20;;;;;;5110771;28;20229;-74
2023/07/25 16:15:19;;;;;;;5.63;1.55;;;19.90;90.00;;;;;;5112448;28;20047;-73
2023/07/25 16:17:45;;;;;;;12.98;5.00;;;19.90;86.60;;;;;;5128708;28;20035;-74
2023/07/25 16:20:11;;;;;;;7.97;3.10;;;19.90;89.30;;;;;;5124966;27;20049;-74
2023/07/25 16:22:36;;;;;;;15.10;3.78;;;20.00;88.50;;;;;;5109841;28;20055;-74
2023/07/25 16:25:02;;;;;;;5.85;1.95;;;20.00;88.70;;;;;;5110291;28;20375;-74
2023/07/25 16:27:28;;;;;;;6.45;2.22;;;20.00;85.70;;;;;;5120545;28;20545;-74
2023/07/25 16:29:53;;;;;;;5.75;2.05;;;20.00;85.00;;;;;;5127782;28;20031;-74
2023/07/25 16:32:19;;;;;;;6.15;2.03;;;20.00;86.00;;;;;;5129949;28;20071;-74
2023/07/25 16:34:45;;;;;;;5.82;1.88;;;20.00;85.10;;;;;;5128202;28;20108;-74
2023/07/25 16:37:10;;;;;;;7.95;2.20;;;19.90;85.80;;;;;;5130346;28;20476;-74
2023/07/25 16:39:36;;;;;;;10.30;3.08;;;19.90;86.00;;;;;;5129402;28;20061;-74
2023/07/25 16:42:02;;;;;;;5.50;1.98;;;19.90;88.60;;;;;;5131475;27;20473;-74
2023/07/25 16:44:27;;;;;;;4.85;1.40;;;19.90;87.80;;;;;;5130458;28;20039;-73
2023/07/25 16:46:53;;;;;;;7.00;1.77;;;19.90;85.70;;;;;;5121418;28;20051;-74
2023/07/25 16:49:18;;;;;;;6.70;1.95;;;19.90;86.20;;;;;;5116371;28;20461;-74
2023/07/25 16:51:45;;;;;;;5.05;2.00;;;19.90;87.70;;;;;;5115941;28;20428;-74
2023/07/25 16:54:10;;;;;;;6.18;1.48;;;19.90;90.00;;;;;;5115730;28;20047;-74
2023/07/25 16:56:36;;;;;;;6.05;2.03;;;20.00;89.10;;;;;;5116680;28;20044;-74
2023/07/25 16:59:01;;;;;;;7.05;1.98;;;20.00;89.30;;;;;;5116491;28;20050;-74
2023/07/25 17:01:27;;;;;;;5.65;2.20;;;20.00;89.70;;;;;;5116554;28;20570;-73
2023/07/25 17:03:53;;;;;;;7.13;2.08;;;20.00;90.30;;;;;;5114811;28;20032;-74
2023/07/25 17:06:18;;;;;;;5.40;1.15;;;20.00;90.00;;;;;;5115568;28;20389;-74
2023/07/25 17:08:45;;;;;;;6.97;1.38;;;20.10;87.90;;;;;;5114245;28;20040;-73
2023/07/25 17:11:11;;;;;;;4.28;1.25;;;20.00;86.40;;;;;;5115392;28;20458;-74
2023/07/25 17:13:37;;;;;;;6.95;1.60;;;20.00;85.60;;;;;;5108245;28;20134;-74
2023/07/25 17:16:06;;;;;;;3.90;1.17;;;20.00;85.60;;;;;;5108631;28;20035;-73
2023/07/25 17:18:31;;;;;;;7.25;1.55;;;20.00;86.30;;;;;;5100279;28;20036;-74
2023/07/25 17:20:57;;;;;;;7.75;1.60;;;20.00;88.10;;;;;;5097999;28;20048;-74
2023/07/25 17:23:23;;;;;;;4.75;1.60;;;20.00;87.30;;;;;;5099248;28;20036;-74
2023/07/25 17:25:49;;;;;;;5.30;1.58;;;20.00;90.00;;;;;;5108120;28;20097;-74
2023/07/25 17:28:14;;;;;;;4.93;1.30;;;20.00;90.40;;;;;;5112290;28;20069;-73
2023/07/25 17:30:41;;;;;;;5.13;1.40;;;20.00;87.80;;;;;;5107220;28;20044;-74
2023/07/25 17:33:07;;;;;;;3.88;1.30;;;20.00;85.70;;;;;;5107280;28;20067;-74
2023/07/25 17:35:32;;;;;;;5.88;1.40;;;20.00;87.50;;;;;;5110408;28;20086;-74
2023/07/25 17:37:58;;;;;;;4.07;1.30;;;20.00;87.60;;;;;;5110530;28;20047;-73
2023/07/25 17:40:23;;;;;;;4.53;1.20;;;19.90;89.20;;;;;;5110672;28;20043;-72
2023/07/25 17:42:49;;;;;;;3.67;1.20;;;19.90;87.50;;;;;;5104006;28;20421;-73
2023/07/25 17:45:14;;;;;;;3.63;1.15;;;19.90;88.30;;;;;;5113445;28;20031;-73
2023/07/25 17:47:40;;;;;;;4.53;1.30;;;19.90;88.30;;;;;;5099801;28;20112;-73
2023/07/25 17:50:06;;;;;;;3.50;1.20;;;19.90;87.80;;;;;;5102534;28;20446;-73
2023/07/25 17:52:32;;;;;;;3.97;1.25;;;19.90;88.00;;;;;;5105488;28;20044;-73
2023/07/25 17:54:57;;;;;;;4.18;1.10;;;19.90;86.70;;;;;;5110260;28;20042;-72
2023/07/25 17:57:23;;;;;;;4.95;1.17;;;19.90;85.40;;;;;;5095871;28;20043;-72
2023/07/25 17:59:49;;;;;;;3.67;1.40;;;19.90;87.50;;;;;;5097843;28;20374;-72
2023/07/25 18:02:14;;;;;;;3.45;1.15;;;19.90;88.40;;;;;;5093641;28;20040;-74
2023/07/25 18:04:40;;;;;;;3.30;1.10;;;19.90;89.00;;;;;;5093406;28;20035;-74
2023/07/25 18:07:06;;;;;;;3.88;1.30;;;19.90;88.70;;;;;;5093439;28;20047;-74
2023/07/25 18:09:32;;;;;;;3.47;1.10;;;19.90;86.50;;;;;;5093434;28;20040;-74
2023/07/25 18:11:57;;;;;;;5.20;1.40;;;19.90;88.50;;;;;;5094170;28;20078;-73
2023/07/25 18:14:23;;;;;;;4.10;1.02;;;19.90;87.40;;;;;;5093359;28;20047;-72
2023/07/25 18:16:49;;;;;;;3.55;1.25;;;19.90;89.00;;;;;;5093267;28;20028;-74
2023/07/25 18:19:14;;;;;;;4.07;1.30;;;19.90;88.70;;;;;;5093707;28;20040;-71
2023/07/25 18:21:40;;;;;;;3.88;1.15;;;19.90;89.00;;;;;;5093796;28;20040;-72
2023/07/25 18:24:05;;;;;;;5.47;1.23;;;19.90;90.00;;;;;;5104909;28;20044;-73
2023/07/25 18:26:31;;;;;;;3.85;1.23;;;19.90;90.10;;;;;;5113471;28;20047;-73
2023/07/25 18:28:57;;;;;;;2.88;1.00;;;19.90;90.10;;;;;;5112164;27;20424;-73
2023/07/25 18:31:22;;;;;;;3.88;1.13;;;19.90;90.40;;;;;;5106032;28;20496;-73
2023/07/25 18:33:48;;;;;;;3.72;1.27;;;19.80;90.40;;;;;;5103980;28;20047;-72
2023/07/25 18:36:14;;;;;;;2.88;1.10;;;19.90;90.60;;;;;;5101147;28;20150;-73
2023/07/25 18:38:40;;;;;;;4.13;1.20;;;19.90;90.10;;;;;;5100422;28;20047;-72
2023/07/25 18:41:05;;;;;;;3.58;1.23;;;19.80;90.10;;;;;;5105900;28;20481;-73
2023/07/25 18:43:31;;;;;;;2.88;1.02;;;19.80;89.50;;;;;;5112409;28;20047;-72
2023/07/25 18:45:57;;;;;;;3.13;1.20;;;19.80;90.10;;;;;;5110268;28;20101;-73
2023/07/25 18:48:23;;;;;;;4.53;1.50;;;19.80;90.30;;;;;;5102367;28;20036;-73
2023/07/25 18:50:48;;;;;;;2.83;1.20;;;19.80;89.20;;;;;;5110071;28;20489;-72
2023/07/25 18:53:14;;;;;;;4.28;1.40;;;19.80;89.70;;;;;;5104717;28;20043;-72
2023/07/25 18:55:43;;;;;;;3.83;1.33;;;19.70;90.00;;;;;;5110454;28;20043;-73
2023/07/25 18:58:11;;;;;;;3.92;1.20;;;19.70;90.30;;;;;;5112605;28;20048;-73
2023/07/25 19:00:37;;;;;;;4.97;1.60;;;19.70;89.70;;;;;;5112565;28;20404;-72
2023/07/25 19:03:06;;;;;;;3.78;1.48;;;19.70;89.00;;;;;;5082646;28;20052;-73
2023/07/25 19:05:34;;;;;;;3.95;1.20;;;19.60;88.50;;;;;;5096555;28;20075;-72
2023/07/25 19:08:00;;;;;;;7.85;1.30;;;19.60;88.20;;;;;;5109107;28;20071;-73
2023/07/25 19:10:26;;;;;;;2.88;1.08;;;19.60;90.00;;;;;;5103236;28;20074;-73
2023/07/25 19:12:52;;;;;;;3.63;1.20;;;19.60;90.30;;;;;;5108586;28;20066;-73
2023/07/25 19:15:22;;;;;;;3.30;1.20;;;19.60;90.50;;;;;;5108112;28;20104;-73
2023/07/25 19:17:47;;;;;;;3.30;1.20;;;19.60;90.40;;;;;;5108944;28;20060;-73
2023/07/25 19:20:16;;;;;;;4.38;1.30;;;19.60;90.60;;;;;;5108228;28;20439;-73
2023/07/25 19:22:42;;;;;;;3.45;1.48;;;19.60;90.50;;;;;;5092115;28;20473;-73
2023/07/25 19:25:08;;;;;;;2.45;1.10;;;19.60;90.50;;;;;;5108675;28;20049;-73
2023/07/25 19:27:37;;;;;;;3.00;1.17;;;19.60;90.50;;;;;;5091791;28;20040;-73
2023/07/25 19:30:03;;;;;;;3.65;1.40;;;19.60;90.50;;;;;;5106840;28;20416;-73
2023/07/25 19:32:29;;;;;;;2.40;1.08;;;19.60;90.50;;;;;;5092966;28;20124;-73
2023/07/25 19:34:54;;;;;;;3.05;1.23;;;19.60;90.50;;;;;;5098029;28;20491;-73
2023/07/25 19:37:20;;;;;;;3.17;1.30;;;19.60;90.50;;;;;;5101382;28;20040;-73
2023/07/25 19:39:45;;;;;;;2.92;1.30;;;19.60;90.40;;;;;;5108244;28;20047;-73
2023/07/25 19:42:11;;;;;;;3.00;1.27;;;19.60;90.40;;;;;;5110300;28;20119;-73
2023/07/25 19:44:37;;;;;;;3.65;1.35;;;19.70;90.40;;;;;;5112736;28;20062;-73
2023/07/25 19:47:03;;;;;;;4.07;1.50;;;19.60;90.40;;;;;;5108002;28;20118;-73
2023/07/25 19:49:28;;;;;;;4.15;1.30;;;19.60;90.40;;;;;;5112434;28;20089;-73
2023/07/25 19:51:54;;;;;;;3.35;1.30;;;19.60;90.40;;;;;;5112563;28;20036;-73
2023/07/25 19:54:19;;;;;;;3.08;1.30;;;19.60;90.40;;;;;;5097922;28;20035;-73
2023/07/25 19:56:46;;;;;;;3.00;1.40;;;19.60;90.40;;;;;;5103818;28;20417;-73
2023/07/25 19:59:12;;;;;;;3.33;1.08;;;19.60;90.40;;;;;;5090737;28;20391;-72
2023/07/25 20:01:37;;;;;;;3.80;1.35;;;19.50;90.30;;;;;;5103940;28;20101;-73
2023/07/25 20:04:03;;;;;;;4.68;1.40;;;19.50;90.30;;;;;;5110021;28;20444;-73
2023/07/25 20:06:29;;;;;;;3.58;1.40;;;19.50;90.30;;;;;;5098067;28;20401;-73
2023/07/25 20:08:54;;;;;;;3.42;1.30;;;19.50;90.30;;;;;;5108698;28;20125;-73
2023/07/25 20:11:20;;;;;;;2.45;1.25;;;19.40;90.30;;;;;;5094445;28;20080;-73
2023/07/25 20:13:45;;;;;;;3.38;1.33;;;19.40;90.30;;;;;;5091085;28;20090;-73
2023/07/25 20:16:11;;;;;;;3.90;1.27;;;19.40;90.30;;;;;;5106037;28;20042;-72
2023/07/25 20:18:37;;;;;;;3.55;1.52;;;19.40;90.30;;;;;;5091879;28;20062;-73
2023/07/25 20:21:08;;;;;;;3.75;1.52;;;19.40;90.30;;;;;;5092282;28;20036;-73
2023/07/25 20:23:34;;;;;;;3.95;1.40;;;19.30;90.20;;;;;;5109383;28;20052;-73
2023/07/25 20:26:03;;;;;;;3.95;1.38;;;19.30;90.30;;;;;;5116346;28;20485;-73
2023/07/25 20:28:29;;;;;;;4.55;1.50;;;19.30;90.30;;;;;;5101693;28;20040;-73
2023/07/25 20:30:55;;;;;;;3.33;1.30;;;19.20;90.30;;;;;;5116209;28;20051;-73
2023/07/25 20:33:20;;;;;;;2.95;1.15;;;19.20;90.30;;;;;;5107503;28;20431;-73
2023/07/25 20:35:46;;;;;;;4.20;1.40;;;19.10;90.30;;;;;;5101915;27;20090;-73
2023/07/25 20:38:12;;;;;;;3.78;1.40;;;19.10;90.30;;;;;;5114426;28;20039;-73
2023/07/25 20:40:38;;;;;;;4.60;1.27;;;19.00;90.30;;;;;;5114654;28;20043;-73
2023/07/25 20:43:04;;;;;;;2.83;1.13;;;19.00;90.30;;;;;;5105978;28;20044;-72
2023/07/25 20:45:31;;;;;;;4.35;1.58;;;18.90;90.30;;;;;;5110696;28;20046;-72
2023/07/25 20:47:57;;;;;;;2.78;1.33;;;18.90;90.30;;;;;;5106234;28;20052;-74
2023/07/25 20:50:22;;;;;;;6.18;1.50;;;18.90;90.40;;;;;;5108682;28;20039;-73
2023/07/25 20:52:52;;;;;;;5.65;1.63;;;18.80;90.40;;;;;;5109849;28;20127;-73
2023/07/25 20:55:18;;;;;;;3.20;1.48;;;18.80;90.40;;;;;;5077229;28;20524;-73
2023/07/25 20:57:44;;;;;;;3.50;1.50;;;18.70;90.40;;;;;;5110172;28;20818;-73
2023/07/25 21:00:10;;;;;;;4.05;1.45;;;18.70;90.40;;;;;;5107094;28;20043;-73
2023/07/25 21:02:38;;;;;;;4.93;1.63;;;18.70;90.50;;;;;;5111025;28;20115;-72
2023/07/25 21:05:05;;;;;;;3.90;1.80;;;18.60;90.40;;;;;;5095395;28;20050;-72
2023/07/25 21:07:31;;;;;;;3.60;1.40;;;18.60;90.50;;;;;;5110511;28;20039;-73
2023/07/25 21:09:56;;;;;;;4.10;1.60;;;18.50;90.50;;;;;;5108014;28;20051;-73
2023/07/25 21:12:22;;;;;;;5.50;1.58;;;18.50;90.50;;;;;;5115790;28;20036;-72
2023/07/25 21:14:48;;;;;;;4.47;1.60;;;18.40;90.50;;;;;;5105548;28;20043;-72
2023/07/25 21:17:13;;;;;;;5.40;1.80;;;18.40;90.50;;;;;;5115747;28;20136;-73
2023/07/25 21:19:39;;;;;;;3.45;1.33;;;18.40;90.60;;;;;;5115492;28;20070;-73
2023/07/25 21:22:05;;;;;;;4.25;1.55;;;18.30;90.60;;;;;;5115963;28;20043;-73
2023/07/25 21:24:32;;;;;;;3.70;1.48;;;18.30;90.60;;;;;;5115750;28;20055;-72
2023/07/25 21:26:59;;;;;;;3.70;1.65;;;18.20;90.60;;;;;;5115209;28;20051;-72
2023/07/25 21:29:24;;;;;;;3.95;1.58;;;18.20;90.60;;;;;;5115363;28;20124;-73
2023/07/25 21:31:50;;;;;;;4.07;1.70;;;18.10;90.60;;;;;;5115888;28;20089;-73
2023/07/25 21:34:16;;;;;;;4.15;1.40;;;18.10;90.70;;;;;;5115217;28;20051;-72
2023/07/25 21:36:42;;;;;;;3.85;1.40;;;18.00;90.70;;;;;;5115717;28;20054;-73
2023/07/25 21:39:08;;;;;;;4.65;1.40;;;18.10;90.70;;;;;;5115600;28;20083;-73
2023/07/25 21:41:34;;;;;;;3.60;1.70;;;18.00;90.50;;;;;;5115303;28;20473;-73
2023/07/25 21:44:00;;;;;;;5.57;1.88;;;17.90;90.60;;;;;;5115131;28;20042;-73
2023/07/25 21:46:27;;;;;;;5.60;1.80;;;17.90;90.70;;;;;;5114095;28;20505;-72
2023/07/25 21:48:53;;;;;;;4.28;1.80;;;17.80;90.80;;;;;;5115164;27;20073;-73
2023/07/25 21:51:18;;;;;;;3.38;1.50;;;17.80;90.90;;;;;;5115396;28;20048;-72
2023/07/25 21:53:45;;;;;;;3.83;1.58;;;17.80;91.00;;;;;;5115151;28;20053;-73
2023/07/25 21:56:11;;;;;;;5.60;1.50;;;17.70;91.00;;;;;;5115172;27;20446;-73
2023/07/25 21:58:36;;;;;;;3.28;1.65;;;17.70;91.00;;;;;;5114685;28;20048;-73
2023/07/25 22:01:02;;;;;;;6.15;1.65;;;17.70;91.10;;;;;;5115238;28;20055;-73
2023/07/25 22:03:28;;;;;;;4.53;1.70;;;17.70;91.10;;;;;;5113489;28;20052;-74
2023/07/25 22:05:54;;;;;;;4.43;1.52;;;17.60;91.10;;;;;;5113390;28;20040;-72
2023/07/25 22:08:20;;;;;;;4.47;1.55;;;17.60;91.20;;;;;;5114996;28;20047;-73
2023/07/25 22:10:46;;;;;;;4.18;1.60;;;17.50;91.20;;;;;;5115005;28;20047;-72
2023/07/25 22:13:12;;;;;;;6.35;1.80;;;17.50;91.20;;;;;;5112972;28;20053;-73
2023/07/25 22:15:38;;;;;;;3.65;1.65;;;17.40;91.10;;;;;;5113116;28;20058;-73
2023/07/25 22:18:04;;;;;;;6.03;1.80;;;17.40;91.20;;;;;;5114058;28;20035;-73
2023/07/25 22:20:30;;;;;;;3.28;1.70;;;17.30;91.30;;;;;;5113561;28;20113;-73
2023/07/25 22:22:55;;;;;;;4.10;1.35;;;17.30;91.40;;;;;;5096032;28;20108;-73
2023/07/25 22:25:21;;;;;;;4.15;1.70;;;17.20;91.40;;;;;;5114009;28;20394;-72
2023/07/25 22:27:50;;;;;;;3.50;1.45;;;17.10;91.50;;;;;;5114525;28;20052;-73
2023/07/25 22:30:16;;;;;;;3.75;1.77;;;17.10;91.60;;;;;;5114451;28;20039;-72
2023/07/25 22:32:42;;;;;;;3.92;1.80;;;17.00;91.60;;;;;;5113943;28;20044;-73
2023/07/25 22:35:07;;;;;;;4.72;1.70;;;17.00;91.60;;;;;;5114323;28;20096;-72
2023/07/25 22:37:33;;;;;;;3.35;1.40;;;16.90;91.70;;;;;;5114440;28;20061;-73
2023/07/25 22:39:59;;;;;;;3.50;1.70;;;16.90;91.60;;;;;;5114361;28;20040;-72
2023/07/25 22:42:24;;;;;;;4.22;1.67;;;16.90;91.60;;;;;;5114201;28;20039;-73
2023/07/25 22:44:50;;;;;;;3.97;1.65;;;16.80;91.70;;;;;;5113820;28;20558;-73
2023/07/25 22:47:16;;;;;;;3.33;1.52;;;16.80;91.80;;;;;;5112974;28;20044;-73
2023/07/25 22:49:41;;;;;;;5.18;1.70;;;16.80;91.80;;;;;;5114072;28;20054;-73
2023/07/25 22:52:07;;;;;;;5.22;1.83;;;16.80;91.90;;;;;;5113103;28;20405;-73
2023/07/25 22:54:32;;;;;;;4.57;1.80;;;16.80;91.90;;;;;;5113946;28;20392;-73
2023/07/25 22:56:58;;;;;;;3.15;1.70;;;16.80;91.90;;;;;;5114210;28;20043;-72
2023/07/25 22:59:25;;;;;;;4.32;1.80;;;16.70;91.80;;;;;;5113898;28;20046;-73
2023/07/25 23:01:50;;;;;;;4.60;1.80;;;16.80;91.80;;;;;;5113440;28;20055;-73
2023/07/25 23:04:16;;;;;;;4.15;1.80;;;16.70;91.80;;;;;;5114057;28;20126;-73
2023/07/25 23:06:41;;;;;;;5.07;1.92;;;16.70;91.80;;;;;;5112768;28;20043;-72
2023/07/25 23:09:07;;;;;;;4.00;1.80;;;16.70;91.80;;;;;;5113954;28;20052;-73
2023/07/25 23:11:32;;;;;;;4.78;2.00;;;16.70;91.90;;;;;;5113988;28;20043;-73
2023/07/25 23:13:58;;;;;;;4.35;1.70;;;16.70;91.80;;;;;;5113706;28;20116;-73
2023/07/25 23:16:24;;;;;;;5.38;2.00;;;16.60;91.80;;;;;;5113404;28;20040;-72
2023/07/25 23:18:49;;;;;;;5.63;2.00;;;16.60;91.70;;;;;;5114037;28;20085;-72
2023/07/25 23:21:15;;;;;;;4.40;1.83;;;16.50;91.70;;;;;;5113567;28;20043;-73
2023/07/25 23:23:40;;;;;;;6.18;2.20;;;16.50;91.90;;;;;;5113653;28;20040;-72
2023/07/25 23:26:06;;;;;;;3.88;1.75;;;16.40;91.60;;;;;;5113558;28;20089;-73
2023/07/25 23:28:32;;;;;;;4.88;2.10;;;16.30;91.70;;;;;;5113705;28;20079;-73
2023/07/25 23:30:57;;;;;;;4.70;1.90;;;16.30;91.70;;;;;;5112589;28;20096;-73
2023/07/25 23:33:23;;;;;;;4.88;1.90;;;16.20;91.60;;;;;;5113955;28;20046;-73
2023/07/25 23:35:48;;;;;;;4.07;1.92;;;16.20;91.70;;;;;;5113724;28;20529;-73
2023/07/25 23:38:14;;;;;;;4.22;2.08;;;16.10;91.80;;;;;;5113510;28;20051;-73
2023/07/25 23:40:40;;;;;;;3.05;1.65;;;16.10;91.70;;;;;;5113200;28;20423;-73
2023/07/25 23:43:06;;;;;;;3.35;1.73;;;16.10;91.70;;;;;;5113302;28;20046;-72
2023/07/25 23:45:32;;;;;;;4.65;2.10;;;16.10;92.00;;;;;;5113262;28;20113;-73
2023/07/25 23:47:58;;;;;;;4.57;1.90;;;16.00;91.90;;;;;;5113622;28;20461;-73
2023/07/25 23:50:23;;;;;;;4.70;1.90;;;16.00;91.80;;;;;;5113589;28;20081;-73
2023/07/25 23:52:49;;;;;;;4.68;1.77;;;16.00;91.70;;;;;;5113786;28;20481;-73
2023/07/25 23:55:15;;;;;;;4.57;1.95;;;15.90;91.90;;;;;;5112801;28;20439;-73
2023/07/25 23:57:40;;;;;;;3.35;2.00;;;15.90;91.90;;;;;;5115987;28;20079;-73
